首页
METAR-TAF:

METAR-TAF

机场 :

Duke Field, 佛罗里达州, 美国

纬度: 30-39N, 经度: 086-31W, 海拔: 59米

当前天气观测

该预报发布于50分钟前的15:56 UTC
风速6节,风向南转南东
温度 28°C
湿度 74%
气压 1019 hPa
能見度: 16.1公里
天空无云

METAR: KEGI 201556Z AUTO 15006KT 10SM CLR 28/23 A3009 RMK AO2 SLP188 T02840233 $

时间: 11:46 (16:46 UTC)

预报

该预报发布于3小时和46分钟前的13:00 UTC
预报有效从20日的 13点(UTC)到 21日的 15点(UTC)
风速6节,风向南转南东
能见度10公里或以上
少量云层高于3000英尺
散云层高于20000英尺
成为
从 20日的 14点(UTC)到 20日的 15点(UTC)
风速9节,风向
能见度10公里或以上
散云层高于3000英尺, 积雨云.
散云层高于15000英尺
附近有雷暴
短暂存在
从 20日的 16点(UTC)到 20日的 22点(UTC)
风速12节,风向,有时为18节阵风
能見度: 4800
多云层高于2500英尺, 积雨云.
雷暴, 小雨
成为
从 20日的 21点(UTC)到 20日的 22点(UTC)
风速9节,风向南转南东
能見度: 6000
多云层高于2500英尺
多云层高于15000英尺
小阵雨
成为
从 20日的 23点(UTC)到 20日的 24点(UTC)
风速5节,风向多变
能见度10公里或以上
少量云层高于2500英尺
多云层高于15000英尺
成为
从 21日的 12点(UTC)到 21日的 13点(UTC)
风速6节,风向
能见度10公里或以上
散云层高于3000英尺
散云层高于10000英尺

TAF: KEGI 201300Z 2013/2115 15006KT 9999 FEW030 SCT200 QNH3003INS BECMG 2014/2015 17009KT 9999 VCTS SCT030CB SCT150 QNH3005INS TEMPO 2016/2022 18012G18KT 4800 -TSRA BKN025CB BECMG 2021/2022 16009KT 6000 -SHRA BKN025 BKN150 QNH3005INS BECMG 2023/2024 VRB05KT 9999 NSW FEW025 BKN150 QNH3004INS BECMG 2112/2113 09006KT 9999 SCT030 SCT100 QNH3009INS TX32/2019Z TN24/2111Z

超过4000个机场的气象观测和天气预报(METAR&TAF报告)。

可查询的气象台以黄色和红色小点在地图上表示。

将鼠标移到小点上方,可查看气象台名称。

然后点击查看天气观测和预报。

如需切换地图:点击带黑十字的绿色按钮放大地图;点击带横线的绿色按钮缩小地图;或者点击绿色箭头查看邻近地区的地图。


METAR-TAF: